sensor_id;sensor_type;location;lat;lon;timestamp;P1;durP1;ratioP1;P2;durP2;ratioP2
38725;SDS011;24474;48.906;8.808;2023-11-19T00:02:15;2.70;;;1.65;;
38725;SDS011;24474;48.906;8.808;2023-11-19T00:04:41;3.97;;;2.10;;
38725;SDS011;24474;48.906;8.808;2023-11-19T00:07:07;2.33;;;1.70;;
38725;SDS011;24474;48.906;8.808;2023-11-19T00:09:33;2.10;;;1.58;;
38725;SDS011;24474;48.906;8.808;2023-11-19T00:12:01;2.08;;;1.50;;
38725;SDS011;24474;48.906;8.808;2023-11-19T00:14:27;2.40;;;1.48;;
38725;SDS011;24474;48.906;8.808;2023-11-19T00:16:54;2.65;;;1.40;;
38725;SDS011;24474;48.906;8.808;2023-11-19T00:19:20;3.42;;;1.60;;
38725;SDS011;24474;48.906;8.808;2023-11-19T00:21:46;2.50;;;1.40;;
38725;SDS011;24474;48.906;8.808;2023-11-19T00:24:12;1.80;;;1.20;;
38725;SDS011;24474;48.906;8.808;2023-11-19T00:26:38;3.60;;;1.60;;
38725;SDS011;24474;48.906;8.808;2023-11-19T00:29:04;1.70;;;1.05;;
38725;SDS011;24474;48.906;8.808;2023-11-19T00:31:29;2.13;;;1.20;;
38725;SDS011;24474;48.906;8.808;2023-11-19T00:33:55;2.38;;;1.40;;
38725;SDS011;24474;48.906;8.808;2023-11-19T00:36:21;3.10;;;1.30;;
38725;SDS011;24474;48.906;8.808;2023-11-19T00:38:48;1.48;;;1.10;;
38725;SDS011;24474;48.906;8.808;2023-11-19T00:41:14;2.22;;;1.25;;
38725;SDS011;24474;48.906;8.808;2023-11-19T00:43:43;5.47;;;1.40;;
38725;SDS011;24474;48.906;8.808;2023-11-19T00:46:09;1.88;;;1.20;;
38725;SDS011;24474;48.906;8.808;2023-11-19T00:48:36;2.70;;;1.20;;
38725;SDS011;24474;48.906;8.808;2023-11-19T00:51:01;2.08;;;0.98;;
38725;SDS011;24474;48.906;8.808;2023-11-19T00:53:29;2.55;;;1.10;;
38725;SDS011;24474;48.906;8.808;2023-11-19T00:55:55;0.85;;;0.77;;
38725;SDS011;24474;48.906;8.808;2023-11-19T00:58:22;1.55;;;1.10;;
38725;SDS011;24474;48.906;8.808;2023-11-19T01:00:49;2.20;;;1.15;;
38725;SDS011;24474;48.906;8.808;2023-11-19T01:03:14;1.70;;;0.90;;
38725;SDS011;24474;48.906;8.808;2023-11-19T01:05:41;0.88;;;0.85;;
38725;SDS011;24474;48.906;8.808;2023-11-19T01:08:07;3.88;;;1.08;;
38725;SDS011;24474;48.906;8.808;2023-11-19T01:10:33;1.58;;;0.98;;
38725;SDS011;24474;48.906;8.808;2023-11-19T01:12:59;1.33;;;0.90;;
38725;SDS011;24474;48.906;8.808;2023-11-19T01:15:24;1.10;;;0.80;;
38725;SDS011;24474;48.906;8.808;2023-11-19T01:17:51;1.65;;;1.00;;
38725;SDS011;24474;48.906;8.808;2023-11-19T01:20:16;1.80;;;0.80;;
38725;SDS011;24474;48.906;8.808;2023-11-19T01:22:42;1.92;;;0.88;;
38725;SDS011;24474;48.906;8.808;2023-11-19T01:25:08;1.15;;;0.90;;
38725;SDS011;24474;48.906;8.808;2023-11-19T01:27:34;1.30;;;0.70;;
38725;SDS011;24474;48.906;8.808;2023-11-19T01:30:03;1.63;;;0.88;;
38725;SDS011;24474;48.906;8.808;2023-11-19T01:32:30;2.40;;;0.90;;
38725;SDS011;24474;48.906;8.808;2023-11-19T01:34:56;1.63;;;1.00;;
38725;SDS011;24474;48.906;8.808;2023-11-19T01:37:22;3.33;;;1.40;;
38725;SDS011;24474;48.906;8.808;2023-11-19T01:39:48;3.33;;;1.60;;
38725;SDS011;24474;48.906;8.808;2023-11-19T01:42:14;3.83;;;2.15;;
38725;SDS011;24474;48.906;8.808;2023-11-19T01:44:40;4.72;;;2.60;;
38725;SDS011;24474;48.906;8.808;2023-11-19T01:47:06;4.30;;;2.55;;
38725;SDS011;24474;48.906;8.808;2023-11-19T01:49:33;5.13;;;2.55;;
38725;SDS011;24474;48.906;8.808;2023-11-19T01:51:59;4.53;;;2.58;;
38725;SDS011;24474;48.906;8.808;2023-11-19T01:54:25;4.32;;;2.50;;
38725;SDS011;24474;48.906;8.808;2023-11-19T01:56:53;5.20;;;2.65;;
38725;SDS011;24474;48.906;8.808;2023-11-19T01:59:21;4.97;;;2.60;;
38725;SDS011;24474;48.906;8.808;2023-11-19T02:01:51;3.80;;;2.47;;
38725;SDS011;24474;48.906;8.808;2023-11-19T02:04:25;3.67;;;2.28;;
38725;SDS011;24474;48.906;8.808;2023-11-19T02:06:51;4.15;;;2.35;;
38725;SDS011;24474;48.906;8.808;2023-11-19T02:09:21;3.67;;;2.17;;
38725;SDS011;24474;48.906;8.808;2023-11-19T02:11:47;5.35;;;2.60;;
38725;SDS011;24474;48.906;8.808;2023-11-19T02:14:16;4.43;;;2.55;;
38725;SDS011;24474;48.906;8.808;2023-11-19T02:16:42;4.45;;;2.20;;
38725;SDS011;24474;48.906;8.808;2023-11-19T02:19:08;3.85;;;2.35;;
38725;SDS011;24474;48.906;8.808;2023-11-19T02:21:35;2.20;;;1.70;;
38725;SDS011;24474;48.906;8.808;2023-11-19T02:24:06;2.65;;;1.50;;
38725;SDS011;24474;48.906;8.808;2023-11-19T02:29:04;2.42;;;1.25;;
38725;SDS011;24474;48.906;8.808;2023-11-19T02:31:31;2.45;;;1.50;;
38725;SDS011;24474;48.906;8.808;2023-11-19T02:33:57;2.58;;;1.25;;
38725;SDS011;24474;48.906;8.808;2023-11-19T02:36:25;2.90;;;1.80;;
38725;SDS011;24474;48.906;8.808;2023-11-19T02:38:51;2.20;;;1.30;;
38725;SDS011;24474;48.906;8.808;2023-11-19T02:41:17;0.60;;;0.50;;
38725;SDS011;24474;48.906;8.808;2023-11-19T02:43:42;1.63;;;1.00;;
38725;SDS011;24474;48.906;8.808;2023-11-19T02:46:08;2.50;;;1.70;;
38725;SDS011;24474;48.906;8.808;2023-11-19T02:48:34;1.95;;;0.70;;
38725;SDS011;24474;48.906;8.808;2023-11-19T02:51:03;1.25;;;0.60;;
38725;SDS011;24474;48.906;8.808;2023-11-19T02:53:32;1.20;;;0.60;;
38725;SDS011;24474;48.906;8.808;2023-11-19T02:55:58;0.60;;;0.40;;
38725;SDS011;24474;48.906;8.808;2023-11-19T02:58:36;1.15;;;0.60;;
38725;SDS011;24474;48.906;8.808;2023-11-19T03:01:02;1.67;;;0.65;;
38725;SDS011;24474;48.906;8.808;2023-11-19T03:03:37;1.25;;;0.70;;
38725;SDS011;24474;48.906;8.808;2023-11-19T03:06:05;1.05;;;0.50;;
38725;SDS011;24474;48.906;8.808;2023-11-19T03:08:32;1.13;;;0.60;;
38725;SDS011;24474;48.906;8.808;2023-11-19T03:11:00;0.60;;;0.43;;
38725;SDS011;24474;48.906;8.808;2023-11-19T03:13:25;3.28;;;0.60;;
38725;SDS011;24474;48.906;8.808;2023-11-19T03:15:51;1.60;;;0.50;;
38725;SDS011;24474;48.906;8.808;2023-11-19T03:18:18;0.28;;;0.28;;
38725;SDS011;24474;48.906;8.808;2023-11-19T03:20:46;0.30;;;0.30;;
38725;SDS011;24474;48.906;8.808;2023-11-19T03:23:12;1.25;;;0.38;;
38725;SDS011;24474;48.906;8.808;2023-11-19T03:25:37;0.25;;;0.25;;
38725;SDS011;24474;48.906;8.808;2023-11-19T03:28:03;0.30;;;0.20;;
38725;SDS011;24474;48.906;8.808;2023-11-19T03:30:29;0.63;;;0.20;;
38725;SDS011;24474;48.906;8.808;2023-11-19T03:32:56;0.85;;;0.35;;
38725;SDS011;24474;48.906;8.808;2023-11-19T03:35:22;0.50;;;0.30;;
38725;SDS011;24474;48.906;8.808;2023-11-19T03:37:48;0.20;;;0.20;;
38725;SDS011;24474;48.906;8.808;2023-11-19T03:40:15;0.63;;;0.30;;
38725;SDS011;24474;48.906;8.808;2023-11-19T03:42:40;0.38;;;0.20;;
38725;SDS011;24474;48.906;8.808;2023-11-19T03:45:06;0.47;;;0.20;;
38725;SDS011;24474;48.906;8.808;2023-11-19T03:47:35;0.10;;;0.10;;
38725;SDS011;24474;48.906;8.808;2023-11-19T03:50:01;0.40;;;0.20;;
38725;SDS011;24474;48.906;8.808;2023-11-19T03:52:28;0.20;;;0.20;;
38725;SDS011;24474;48.906;8.808;2023-11-19T03:54:54;0.10;;;0.10;;
38725;SDS011;24474;48.906;8.808;2023-11-19T03:57:20;0.20;;;0.20;;
38725;SDS011;24474;48.906;8.808;2023-11-19T03:59:46;0.40;;;0.30;;
38725;SDS011;24474;48.906;8.808;2023-11-19T04:02:12;1.02;;;0.22;;
38725;SDS011;24474;48.906;8.808;2023-11-19T04:04:38;1.10;;;0.20;;
38725;SDS011;24474;48.906;8.808;2023-11-19T04:07:04;1.15;;;0.20;;
38725;SDS011;24474;48.906;8.808;2023-11-19T04:09:30;0.82;;;0.32;;
38725;SDS011;24474;48.906;8.808;2023-11-19T04:11:58;1.27;;;0.47;;
38725;SDS011;24474;48.906;8.808;2023-11-19T04:14:24;0.38;;;0.30;;
38725;SDS011;24474;48.906;8.808;2023-11-19T04:16:50;0.38;;;0.38;;
38725;SDS011;24474;48.906;8.808;2023-11-19T04:19:16;0.75;;;0.30;;
38725;SDS011;24474;48.906;8.808;2023-11-19T04:21:42;1.88;;;0.50;;
38725;SDS011;24474;48.906;8.808;2023-11-19T04:24:08;0.63;;;0.35;;
38725;SDS011;24474;48.906;8.808;2023-11-19T04:26:39;0.40;;;0.20;;
38725;SDS011;24474;48.906;8.808;2023-11-19T04:29:10;1.63;;;0.40;;
38725;SDS011;24474;48.906;8.808;2023-11-19T04:31:37;1.73;;;0.30;;
38725;SDS011;24474;48.906;8.808;2023-11-19T04:34:03;0.55;;;0.30;;
38725;SDS011;24474;48.906;8.808;2023-11-19T04:36:28;1.02;;;0.40;;
38725;SDS011;24474;48.906;8.808;2023-11-19T04:38:55;0.73;;;0.35;;
38725;SDS011;24474;48.906;8.808;2023-11-19T04:41:20;1.85;;;0.40;;
38725;SDS011;24474;48.906;8.808;2023-11-19T04:43:46;0.68;;;0.30;;
38725;SDS011;24474;48.906;8.808;2023-11-19T04:46:12;0.35;;;0.30;;
38725;SDS011;24474;48.906;8.808;2023-11-19T04:48:37;0.10;;;0.10;;
38725;SDS011;24474;48.906;8.808;2023-11-19T04:51:06;0.20;;;0.20;;
38725;SDS011;24474;48.906;8.808;2023-11-19T04:53:32;0.20;;;0.20;;
38725;SDS011;24474;48.906;8.808;2023-11-19T04:55:58;0.40;;;0.22;;
38725;SDS011;24474;48.906;8.808;2023-11-19T04:58:24;1.27;;;0.30;;
38725;SDS011;24474;48.906;8.808;2023-11-19T05:00:49;1.08;;;0.40;;
38725;SDS011;24474;48.906;8.808;2023-11-19T05:03:15;1.08;;;0.20;;
38725;SDS011;24474;48.906;8.808;2023-11-19T05:05:41;0.68;;;0.60;;
38725;SDS011;24474;48.906;8.808;2023-11-19T05:08:06;0.30;;;0.30;;
38725;SDS011;24474;48.906;8.808;2023-11-19T05:10:32;1.00;;;0.40;;
38725;SDS011;24474;48.906;8.808;2023-11-19T05:12:58;0.30;;;0.30;;
38725;SDS011;24474;48.906;8.808;2023-11-19T05:15:23;0.30;;;0.30;;
38725;SDS011;24474;48.906;8.808;2023-11-19T05:17:49;0.68;;;0.40;;
38725;SDS011;24474;48.906;8.808;2023-11-19T05:20:16;1.73;;;0.40;;
38725;SDS011;24474;48.906;8.808;2023-11-19T05:22:42;0.30;;;0.30;;
38725;SDS011;24474;48.906;8.808;2023-11-19T05:25:08;0.50;;;0.40;;
38725;SDS011;24474;48.906;8.808;2023-11-19T05:27:34;0.40;;;0.40;;
38725;SDS011;24474;48.906;8.808;2023-11-19T05:30:01;0.45;;;0.30;;
38725;SDS011;24474;48.906;8.808;2023-11-19T05:32:27;0.30;;;0.30;;
38725;SDS011;24474;48.906;8.808;2023-11-19T05:34:53;0.77;;;0.47;;
38725;SDS011;24474;48.906;8.808;2023-11-19T05:37:18;1.45;;;0.43;;
38725;SDS011;24474;48.906;8.808;2023-11-19T05:39:45;2.20;;;0.30;;
38725;SDS011;24474;48.906;8.808;2023-11-19T05:42:11;1.42;;;0.45;;
38725;SDS011;24474;48.906;8.808;2023-11-19T05:44:36;1.63;;;0.45;;
38725;SDS011;24474;48.906;8.808;2023-11-19T05:47:03;0.40;;;0.40;;
38725;SDS011;24474;48.906;8.808;2023-11-19T05:49:29;0.93;;;0.40;;
38725;SDS011;24474;48.906;8.808;2023-11-19T05:51:54;1.38;;;0.35;;
38725;SDS011;24474;48.906;8.808;2023-11-19T05:54:21;1.10;;;0.50;;
38725;SDS011;24474;48.906;8.808;2023-11-19T05:56:47;1.48;;;0.50;;
38725;SDS011;24474;48.906;8.808;2023-11-19T05:59:14;0.95;;;0.50;;
38725;SDS011;24474;48.906;8.808;2023-11-19T06:01:42;1.70;;;0.90;;
38725;SDS011;24474;48.906;8.808;2023-11-19T06:04:09;0.98;;;0.40;;
38725;SDS011;24474;48.906;8.808;2023-11-19T06:06:35;1.15;;;0.60;;
38725;SDS011;24474;48.906;8.808;2023-11-19T06:09:01;0.82;;;0.40;;
38725;SDS011;24474;48.906;8.808;2023-11-19T06:11:27;1.98;;;0.50;;
38725;SDS011;24474;48.906;8.808;2023-11-19T06:13:53;0.77;;;0.30;;
38725;SDS011;24474;48.906;8.808;2023-11-19T06:16:20;2.40;;;0.40;;
38725;SDS011;24474;48.906;8.808;2023-11-19T06:18:46;1.00;;;0.45;;
38725;SDS011;24474;48.906;8.808;2023-11-19T06:21:12;1.35;;;0.40;;
38725;SDS011;24474;48.906;8.808;2023-11-19T06:23:38;0.50;;;0.40;;
38725;SDS011;24474;48.906;8.808;2023-11-19T06:26:04;0.90;;;0.40;;
38725;SDS011;24474;48.906;8.808;2023-11-19T06:28:30;1.00;;;0.50;;
38725;SDS011;24474;48.906;8.808;2023-11-19T06:30:56;0.28;;;0.28;;
38725;SDS011;24474;48.906;8.808;2023-11-19T06:33:23;1.00;;;0.60;;
38725;SDS011;24474;48.906;8.808;2023-11-19T06:35:49;1.15;;;0.68;;
38725;SDS011;24474;48.906;8.808;2023-11-19T06:38:15;0.55;;;0.50;;
38725;SDS011;24474;48.906;8.808;2023-11-19T06:40:40;1.08;;;0.50;;
38725;SDS011;24474;48.906;8.808;2023-11-19T06:43:06;1.45;;;0.55;;
38725;SDS011;24474;48.906;8.808;2023-11-19T06:45:34;0.68;;;0.38;;
38725;SDS011;24474;48.906;8.808;2023-11-19T06:48:01;0.45;;;0.30;;
38725;SDS011;24474;48.906;8.808;2023-11-19T06:50:30;0.75;;;0.40;;
38725;SDS011;24474;48.906;8.808;2023-11-19T06:52:57;0.70;;;0.50;;
38725;SDS011;24474;48.906;8.808;2023-11-19T06:55:23;1.85;;;0.60;;
38725;SDS011;24474;48.906;8.808;2023-11-19T06:57:48;0.52;;;0.50;;
38725;SDS011;24474;48.906;8.808;2023-11-19T07:00:14;0.70;;;0.30;;
38725;SDS011;24474;48.906;8.808;2023-11-19T07:02:40;1.42;;;0.55;;
38725;SDS011;24474;48.906;8.808;2023-11-19T07:05:05;1.40;;;0.30;;
38725;SDS011;24474;48.906;8.808;2023-11-19T07:07:33;0.45;;;0.38;;
38725;SDS011;24474;48.906;8.808;2023-11-19T07:09:59;0.70;;;0.40;;
38725;SDS011;24474;48.906;8.808;2023-11-19T07:12:24;2.45;;;0.40;;
38725;SDS011;24474;48.906;8.808;2023-11-19T07:14:51;0.80;;;0.38;;
38725;SDS011;24474;48.906;8.808;2023-11-19T07:17:18;0.35;;;0.30;;
38725;SDS011;24474;48.906;8.808;2023-11-19T07:19:45;0.98;;;0.50;;
38725;SDS011;24474;48.906;8.808;2023-11-19T07:22:15;1.15;;;0.40;;
38725;SDS011;24474;48.906;8.808;2023-11-19T07:24:40;1.40;;;0.50;;
38725;SDS011;24474;48.906;8.808;2023-11-19T07:27:06;1.75;;;0.40;;
38725;SDS011;24474;48.906;8.808;2023-11-19T07:29:33;0.88;;;0.45;;
38725;SDS011;24474;48.906;8.808;2023-11-19T07:32:00;0.90;;;0.38;;
38725;SDS011;24474;48.906;8.808;2023-11-19T07:34:27;1.65;;;0.45;;
38725;SDS011;24474;48.906;8.808;2023-11-19T07:36:54;2.15;;;0.50;;
38725;SDS011;24474;48.906;8.808;2023-11-19T07:39:22;1.08;;;0.55;;
38725;SDS011;24474;48.906;8.808;2023-11-19T07:41:48;2.35;;;0.50;;
38725;SDS011;24474;48.906;8.808;2023-11-19T07:44:14;2.03;;;1.05;;
38725;SDS011;24474;48.906;8.808;2023-11-19T07:46:40;2.30;;;1.40;;
38725;SDS011;24474;48.906;8.808;2023-11-19T07:49:07;2.67;;;0.88;;
38725;SDS011;24474;48.906;8.808;2023-11-19T07:51:32;1.13;;;0.93;;
38725;SDS011;24474;48.906;8.808;2023-11-19T07:53:58;3.50;;;1.33;;
38725;SDS011;24474;48.906;8.808;2023-11-19T07:56:24;2.60;;;1.30;;
38725;SDS011;24474;48.906;8.808;2023-11-19T07:58:49;5.40;;;3.65;;
38725;SDS011;24474;48.906;8.808;2023-11-19T08:01:15;2.92;;;0.90;;
38725;SDS011;24474;48.906;8.808;2023-11-19T08:03:44;1.50;;;0.60;;
38725;SDS011;24474;48.906;8.808;2023-11-19T08:06:09;1.08;;;0.50;;
38725;SDS011;24474;48.906;8.808;2023-11-19T08:08:35;1.13;;;0.52;;
38725;SDS011;24474;48.906;8.808;2023-11-19T08:11:03;1.08;;;0.40;;
38725;SDS011;24474;48.906;8.808;2023-11-19T08:13:30;0.75;;;0.45;;
38725;SDS011;24474;48.906;8.808;2023-11-19T08:15:56;0.82;;;0.50;;
38725;SDS011;24474;48.906;8.808;2023-11-19T08:18:23;1.08;;;0.50;;
38725;SDS011;24474;48.906;8.808;2023-11-19T08:20:49;1.75;;;0.60;;
38725;SDS011;24474;48.906;8.808;2023-11-19T08:23:17;1.85;;;0.40;;
38725;SDS011;24474;48.906;8.808;2023-11-19T08:25:43;1.58;;;0.50;;
38725;SDS011;24474;48.906;8.808;2023-11-19T08:28:09;3.22;;;0.50;;
38725;SDS011;24474;48.906;8.808;2023-11-19T08:30:35;0.57;;;0.40;;
38725;SDS011;24474;48.906;8.808;2023-11-19T08:33:01;1.55;;;0.50;;
38725;SDS011;24474;48.906;8.808;2023-11-19T08:35:28;2.40;;;0.60;;
38725;SDS011;24474;48.906;8.808;2023-11-19T08:37:54;3.03;;;0.68;;
38725;SDS011;24474;48.906;8.808;2023-11-19T08:40:20;0.80;;;0.30;;
38725;SDS011;24474;48.906;8.808;2023-11-19T08:42:45;0.88;;;0.50;;
38725;SDS011;24474;48.906;8.808;2023-11-19T08:45:11;1.85;;;0.60;;
38725;SDS011;24474;48.906;8.808;2023-11-19T08:47:37;1.45;;;0.30;;
38725;SDS011;24474;48.906;8.808;2023-11-19T08:50:02;2.45;;;0.50;;
38725;SDS011;24474;48.906;8.808;2023-11-19T08:52:29;1.52;;;0.55;;
38725;SDS011;24474;48.906;8.808;2023-11-19T08:54:55;0.68;;;0.38;;
38725;SDS011;24474;48.906;8.808;2023-11-19T08:57:21;3.42;;;1.00;;
38725;SDS011;24474;48.906;8.808;2023-11-19T08:59:46;1.02;;;0.40;;
38725;SDS011;24474;48.906;8.808;2023-11-19T09:02:12;1.55;;;0.40;;
38725;SDS011;24474;48.906;8.808;2023-11-19T09:04:38;0.75;;;0.50;;
38725;SDS011;24474;48.906;8.808;2023-11-19T09:07:03;1.27;;;0.50;;
38725;SDS011;24474;48.906;8.808;2023-11-19T09:09:29;1.27;;;0.50;;
38725;SDS011;24474;48.906;8.808;2023-11-19T09:11:55;2.53;;;0.68;;
38725;SDS011;24474;48.906;8.808;2023-11-19T09:14:21;1.23;;;0.57;;
38725;SDS011;24474;48.906;8.808;2023-11-19T09:16:51;0.82;;;0.32;;
38725;SDS011;24474;48.906;8.808;2023-11-19T09:19:17;1.35;;;0.60;;
38725;SDS011;24474;48.906;8.808;2023-11-19T09:21:43;1.02;;;0.47;;
38725;SDS011;24474;48.906;8.808;2023-11-19T09:24:10;1.20;;;0.55;;
38725;SDS011;24474;48.906;8.808;2023-11-19T09:26:35;2.10;;;0.63;;
38725;SDS011;24474;48.906;8.808;2023-11-19T09:29:01;2.17;;;0.70;;
38725;SDS011;24474;48.906;8.808;2023-11-19T09:31:27;2.63;;;0.70;;
38725;SDS011;24474;48.906;8.808;2023-11-19T09:33:52;1.20;;;0.50;;
38725;SDS011;24474;48.906;8.808;2023-11-19T09:36:18;0.95;;;0.52;;
38725;SDS011;24474;48.906;8.808;2023-11-19T09:38:44;1.05;;;0.50;;
38725;SDS011;24474;48.906;8.808;2023-11-19T09:41:10;1.30;;;0.50;;
38725;SDS011;24474;48.906;8.808;2023-11-19T09:43:41;4.45;;;1.17;;
38725;SDS011;24474;48.906;8.808;2023-11-19T09:46:11;3.78;;;0.80;;
38725;SDS011;24474;48.906;8.808;2023-11-19T09:48:40;2.55;;;0.90;;
38725;SDS011;24474;48.906;8.808;2023-11-19T09:51:07;1.25;;;0.52;;
38725;SDS011;24474;48.906;8.808;2023-11-19T09:53:35;1.15;;;0.43;;
38725;SDS011;24474;48.906;8.808;2023-11-19T09:56:03;1.65;;;0.40;;
38725;SDS011;24474;48.906;8.808;2023-11-19T09:58:30;2.50;;;0.50;;
38725;SDS011;24474;48.906;8.808;2023-11-19T10:00:59;1.58;;;0.40;;
38725;SDS011;24474;48.906;8.808;2023-11-19T10:03:32;1.75;;;0.60;;
38725;SDS011;24474;48.906;8.808;2023-11-19T10:06:00;0.93;;;0.50;;
38725;SDS011;24474;48.906;8.808;2023-11-19T10:08:26;1.63;;;0.50;;
38725;SDS011;24474;48.906;8.808;2023-11-19T10:10:52;1.90;;;0.60;;
38725;SDS011;24474;48.906;8.808;2023-11-19T10:13:18;1.63;;;0.50;;
38725;SDS011;24474;48.906;8.808;2023-11-19T10:15:43;1.95;;;0.40;;
38725;SDS011;24474;48.906;8.808;2023-11-19T10:18:10;1.00;;;0.50;;
38725;SDS011;24474;48.906;8.808;2023-11-19T10:20:44;1.85;;;0.52;;
38725;SDS011;24474;48.906;8.808;2023-11-19T10:23:10;2.47;;;0.45;;
38725;SDS011;24474;48.906;8.808;2023-11-19T10:25:37;3.28;;;0.60;;
38725;SDS011;24474;48.906;8.808;2023-11-19T10:28:02;1.55;;;0.55;;
38725;SDS011;24474;48.906;8.808;2023-11-19T10:30:29;1.73;;;0.60;;
38725;SDS011;24474;48.906;8.808;2023-11-19T10:33:08;1.50;;;0.45;;
38725;SDS011;24474;48.906;8.808;2023-11-19T10:35:36;1.30;;;0.60;;
38725;SDS011;24474;48.906;8.808;2023-11-19T10:38:18;1.98;;;0.43;;
38725;SDS011;24474;48.906;8.808;2023-11-19T10:40:43;2.42;;;0.70;;
38725;SDS011;24474;48.906;8.808;2023-11-19T10:43:09;1.40;;;0.50;;
38725;SDS011;24474;48.906;8.808;2023-11-19T10:45:36;1.98;;;0.55;;
38725;SDS011;24474;48.906;8.808;2023-11-19T10:48:03;1.90;;;0.60;;
38725;SDS011;24474;48.906;8.808;2023-11-19T10:50:35;1.52;;;0.50;;
38725;SDS011;24474;48.906;8.808;2023-11-19T10:53:02;1.02;;;0.50;;
38725;SDS011;24474;48.906;8.808;2023-11-19T10:55:32;2.22;;;0.50;;
38725;SDS011;24474;48.906;8.808;2023-11-19T10:58:04;1.65;;;0.70;;
38725;SDS011;24474;48.906;8.808;2023-11-19T11:00:30;2.78;;;0.80;;
38725;SDS011;24474;48.906;8.808;2023-11-19T11:03:24;2.45;;;0.77;;
38725;SDS011;24474;48.906;8.808;2023-11-19T11:05:51;1.75;;;0.60;;
38725;SDS011;24474;48.906;8.808;2023-11-19T11:08:18;1.92;;;0.77;;
38725;SDS011;24474;48.906;8.808;2023-11-19T11:10:45;2.10;;;0.90;;
38725;SDS011;24474;48.906;8.808;2023-11-19T11:13:18;2.40;;;0.93;;
38725;SDS011;24474;48.906;8.808;2023-11-19T11:15:45;3.33;;;0.73;;
38725;SDS011;24474;48.906;8.808;2023-11-19T11:18:12;1.80;;;0.55;;
38725;SDS011;24474;48.906;8.808;2023-11-19T11:20:38;1.33;;;0.55;;
38725;SDS011;24474;48.906;8.808;2023-11-19T11:28:41;1.70;;;0.63;;
38725;SDS011;24474;48.906;8.808;2023-11-19T11:31:40;2.10;;;0.65;;
38725;SDS011;24474;48.906;8.808;2023-11-19T11:37:37;1.73;;;0.50;;
38725;SDS011;24474;48.906;8.808;2023-11-19T11:40:14;3.08;;;0.70;;
38725;SDS011;24474;48.906;8.808;2023-11-19T11:42:41;3.47;;;0.88;;
38725;SDS011;24474;48.906;8.808;2023-11-19T11:45:16;1.08;;;0.50;;
38725;SDS011;24474;48.906;8.808;2023-11-19T11:50:11;2.97;;;0.70;;
38725;SDS011;24474;48.906;8.808;2023-11-19T11:56:08;1.20;;;0.47;;
38725;SDS011;24474;48.906;8.808;2023-11-19T11:58:17;2.00;;;0.60;;
38725;SDS011;24474;48.906;8.808;2023-11-19T12:00:43;2.13;;;0.60;;
38725;SDS011;24474;48.906;8.808;2023-11-19T12:03:12;1.77;;;0.43;;
38725;SDS011;24474;48.906;8.808;2023-11-19T12:05:41;3.42;;;1.48;;
38725;SDS011;24474;48.906;8.808;2023-11-19T12:10:46;13.02;;;7.88;;
38725;SDS011;24474;48.906;8.808;2023-11-19T12:13:14;4.97;;;3.20;;
38725;SDS011;24474;48.906;8.808;2023-11-19T12:20:54;3.45;;;0.60;;
38725;SDS011;24474;48.906;8.808;2023-11-19T12:23:21;1.55;;;0.43;;
38725;SDS011;24474;48.906;8.808;2023-11-19T12:25:51;1.35;;;0.60;;
38725;SDS011;24474;48.906;8.808;2023-11-19T12:28:17;2.67;;;0.63;;
38725;SDS011;24474;48.906;8.808;2023-11-19T12:30:43;1.48;;;0.70;;
38725;SDS011;24474;48.906;8.808;2023-11-19T12:33:13;1.90;;;0.70;;
38725;SDS011;24474;48.906;8.808;2023-11-19T12:35:43;3.60;;;0.70;;
38725;SDS011;24474;48.906;8.808;2023-11-19T12:43:35;2.60;;;0.73;;
38725;SDS011;24474;48.906;8.808;2023-11-19T12:46:02;1.45;;;0.75;;
38725;SDS011;24474;48.906;8.808;2023-11-19T12:48:50;3.63;;;0.80;;
38725;SDS011;24474;48.906;8.808;2023-11-19T12:51:16;2.17;;;1.02;;
38725;SDS011;24474;48.906;8.808;2023-11-19T12:53:49;2.05;;;0.80;;
38725;SDS011;24474;48.906;8.808;2023-11-19T12:56:19;1.10;;;0.50;;
38725;SDS011;24474;48.906;8.808;2023-11-19T12:58:47;3.05;;;0.90;;
38725;SDS011;24474;48.906;8.808;2023-11-19T13:01:19;2.38;;;0.43;;
38725;SDS011;24474;48.906;8.808;2023-11-19T13:03:46;1.55;;;0.70;;
38725;SDS011;24474;48.906;8.808;2023-11-19T13:06:13;1.67;;;0.68;;
38725;SDS011;24474;48.906;8.808;2023-11-19T13:08:48;1.17;;;0.60;;
38725;SDS011;24474;48.906;8.808;2023-11-19T13:11:31;4.18;;;0.80;;
38725;SDS011;24474;48.906;8.808;2023-11-19T13:14:02;2.00;;;0.55;;
38725;SDS011;24474;48.906;8.808;2023-11-19T13:16:35;1.50;;;0.60;;
38725;SDS011;24474;48.906;8.808;2023-11-19T13:19:01;2.88;;;0.65;;
38725;SDS011;24474;48.906;8.808;2023-11-19T13:21:27;2.53;;;0.90;;
38725;SDS011;24474;48.906;8.808;2023-11-19T13:23:58;1.85;;;0.70;;
38725;SDS011;24474;48.906;8.808;2023-11-19T13:26:24;2.00;;;0.70;;
38725;SDS011;24474;48.906;8.808;2023-11-19T13:28:50;2.63;;;0.70;;
38725;SDS011;24474;48.906;8.808;2023-11-19T13:31:16;3.50;;;0.60;;
38725;SDS011;24474;48.906;8.808;2023-11-19T13:33:42;2.55;;;0.70;;
38725;SDS011;24474;48.906;8.808;2023-11-19T13:36:07;1.98;;;0.50;;
38725;SDS011;24474;48.906;8.808;2023-11-19T13:38:34;0.77;;;0.45;;
38725;SDS011;24474;48.906;8.808;2023-11-19T13:41:01;1.23;;;0.50;;
38725;SDS011;24474;48.906;8.808;2023-11-19T13:43:27;1.13;;;0.70;;
38725;SDS011;24474;48.906;8.808;2023-11-19T13:45:54;2.72;;;0.75;;
38725;SDS011;24474;48.906;8.808;2023-11-19T13:48:20;2.05;;;0.80;;
38725;SDS011;24474;48.906;8.808;2023-11-19T13:50:45;1.38;;;0.73;;
38725;SDS011;24474;48.906;8.808;2023-11-19T13:53:11;2.47;;;0.63;;
38725;SDS011;24474;48.906;8.808;2023-11-19T13:55:37;2.17;;;0.60;;
38725;SDS011;24474;48.906;8.808;2023-11-19T13:58:03;3.13;;;0.60;;
38725;SDS011;24474;48.906;8.808;2023-11-19T14:00:28;3.38;;;0.90;;
38725;SDS011;24474;48.906;8.808;2023-11-19T14:02:54;3.30;;;0.60;;
38725;SDS011;24474;48.906;8.808;2023-11-19T14:05:20;2.35;;;0.75;;
38725;SDS011;24474;48.906;8.808;2023-11-19T14:07:45;2.55;;;0.85;;
38725;SDS011;24474;48.906;8.808;2023-11-19T14:10:13;2.45;;;0.80;;
38725;SDS011;24474;48.906;8.808;2023-11-19T14:12:40;1.27;;;0.70;;
38725;SDS011;24474;48.906;8.808;2023-11-19T14:15:07;1.75;;;0.70;;
38725;SDS011;24474;48.906;8.808;2023-11-19T14:17:40;1.98;;;0.85;;
38725;SDS011;24474;48.906;8.808;2023-11-19T14:20:06;4.75;;;3.00;;
38725;SDS011;24474;48.906;8.808;2023-11-19T14:22:41;1.20;;;0.60;;
38725;SDS011;24474;48.906;8.808;2023-11-19T14:25:08;1.30;;;0.50;;
38725;SDS011;24474;48.906;8.808;2023-11-19T14:27:38;2.85;;;0.80;;
38725;SDS011;24474;48.906;8.808;2023-11-19T14:30:07;1.90;;;0.60;;
38725;SDS011;24474;48.906;8.808;2023-11-19T14:32:38;2.10;;;0.60;;
38725;SDS011;24474;48.906;8.808;2023-11-19T14:35:07;1.67;;;0.70;;
38725;SDS011;24474;48.906;8.808;2023-11-19T14:37:33;2.78;;;0.63;;
38725;SDS011;24474;48.906;8.808;2023-11-19T14:39:59;1.98;;;0.50;;
38725;SDS011;24474;48.906;8.808;2023-11-19T14:42:26;2.30;;;0.60;;
38725;SDS011;24474;48.906;8.808;2023-11-19T14:44:52;2.08;;;0.60;;
38725;SDS011;24474;48.906;8.808;2023-11-19T14:47:26;2.30;;;1.00;;
38725;SDS011;24474;48.906;8.808;2023-11-19T14:49:52;1.25;;;0.75;;
38725;SDS011;24474;48.906;8.808;2023-11-19T14:52:17;2.38;;;0.60;;
38725;SDS011;24474;48.906;8.808;2023-11-19T14:54:43;1.70;;;0.50;;
38725;SDS011;24474;48.906;8.808;2023-11-19T14:57:09;2.30;;;0.70;;
38725;SDS011;24474;48.906;8.808;2023-11-19T14:59:34;1.60;;;0.65;;
38725;SDS011;24474;48.906;8.808;2023-11-19T15:02:01;2.67;;;1.00;;
38725;SDS011;24474;48.906;8.808;2023-11-19T15:04:27;1.38;;;0.70;;
38725;SDS011;24474;48.906;8.808;2023-11-19T15:06:53;1.98;;;0.80;;
38725;SDS011;24474;48.906;8.808;2023-11-19T15:09:19;1.70;;;0.55;;
38725;SDS011;24474;48.906;8.808;2023-11-19T15:11:46;1.60;;;0.50;;
38725;SDS011;24474;48.906;8.808;2023-11-19T15:14:12;3.00;;;0.70;;
38725;SDS011;24474;48.906;8.808;2023-11-19T15:16:43;1.58;;;0.50;;
38725;SDS011;24474;48.906;8.808;2023-11-19T15:19:12;2.55;;;0.60;;